sensor_id;sensor_type;location;lat;lon;timestamp;pressure;altitude;pressure_sealevel;temperature;humidity
73101;BME280;61288;53.446;-2.266;2022-07-06T00:00:42;102499.03;;;13.63;83.39
73101;BME280;61288;53.446;-2.266;2022-07-06T00:03:08;102511.13;;;13.65;82.76
73101;BME280;61288;53.446;-2.266;2022-07-06T00:05:40;102506.91;;;13.61;83.07
73101;BME280;61288;53.446;-2.266;2022-07-06T00:08:06;102511.34;;;13.56;83.79
73101;BME280;61288;53.446;-2.266;2022-07-06T00:10:32;102513.06;;;13.57;83.16
73101;BME280;61288;53.446;-2.266;2022-07-06T00:12:57;102505.19;;;13.60;83.35
73101;BME280;61288;53.446;-2.266;2022-07-06T00:15:24;102506.03;;;13.61;83.65
73101;BME280;61288;53.446;-2.266;2022-07-06T00:17:50;102497.44;;;13.57;84.13
73101;BME280;61288;53.446;-2.266;2022-07-06T00:20:15;102493.88;;;13.61;83.67
73101;BME280;61288;53.446;-2.266;2022-07-06T00:22:44;102486.97;;;13.60;84.40
73101;BME280;61288;53.446;-2.266;2022-07-06T00:25:10;102490.38;;;13.62;84.60
73101;BME280;61288;53.446;-2.266;2022-07-06T00:27:37;102492.19;;;13.58;85.11
73101;BME280;61288;53.446;-2.266;2022-07-06T00:30:03;102487.84;;;13.59;84.74
73101;BME280;61288;53.446;-2.266;2022-07-06T00:32:29;102486.88;;;13.63;84.36
73101;BME280;61288;53.446;-2.266;2022-07-06T00:34:59;102485.09;;;13.65;84.52
73101;BME280;61288;53.446;-2.266;2022-07-06T00:37:24;102483.31;;;13.66;84.51
73101;BME280;61288;53.446;-2.266;2022-07-06T00:39:51;102489.28;;;13.71;83.79
73101;BME280;61288;53.446;-2.266;2022-07-06T00:42:16;102489.25;;;13.72;84.42
73101;BME280;61288;53.446;-2.266;2022-07-06T00:44:45;102490.25;;;13.67;85.02
73101;BME280;61288;53.446;-2.266;2022-07-06T00:47:11;102484.13;;;13.69;84.75
73101;BME280;61288;53.446;-2.266;2022-07-06T00:49:42;102484.13;;;13.69;85.01
73101;BME280;61288;53.446;-2.266;2022-07-06T00:52:28;102485.81;;;13.70;84.96
73101;BME280;61288;53.446;-2.266;2022-07-06T00:54:55;102483.25;;;13.69;85.61
73101;BME280;61288;53.446;-2.266;2022-07-06T00:57:24;102482.44;;;13.67;86.08
73101;BME280;61288;53.446;-2.266;2022-07-06T00:59:49;102489.34;;;13.68;85.76
73101;BME280;61288;53.446;-2.266;2022-07-06T01:02:15;102488.53;;;13.66;86.47
73101;BME280;61288;53.446;-2.266;2022-07-06T01:04:47;102489.44;;;13.65;86.81
73101;BME280;61288;53.446;-2.266;2022-07-06T01:07:13;102492.94;;;13.64;87.08
73101;BME280;61288;53.446;-2.266;2022-07-06T01:09:39;102486.81;;;13.65;87.21
73101;BME280;61288;53.446;-2.266;2022-07-06T01:12:05;102489.41;;;13.66;87.41
73101;BME280;61288;53.446;-2.266;2022-07-06T01:14:32;102482.50;;;13.65;87.73
73101;BME280;61288;53.446;-2.266;2022-07-06T01:16:58;102490.31;;;13.65;87.93
73101;BME280;61288;53.446;-2.266;2022-07-06T01:19:29;102486.88;;;13.63;87.83
73101;BME280;61288;53.446;-2.266;2022-07-06T01:21:54;102483.38;;;13.64;87.89
73101;BME280;61288;53.446;-2.266;2022-07-06T01:24:20;102482.44;;;13.67;87.87
73101;BME280;61288;53.446;-2.266;2022-07-06T01:26:46;102488.47;;;13.69;87.82
73101;BME280;61288;53.446;-2.266;2022-07-06T01:29:12;102482.34;;;13.70;88.05
73101;BME280;61288;53.446;-2.266;2022-07-06T01:31:46;102473.69;;;13.69;88.17
73101;BME280;61288;53.446;-2.266;2022-07-06T01:34:14;102472.75;;;13.72;88.14
73101;BME280;61288;53.446;-2.266;2022-07-06T01:36:41;102474.47;;;13.73;88.36
73101;BME280;61288;53.446;-2.266;2022-07-06T01:39:08;102470.94;;;13.76;87.91
73101;BME280;61288;53.446;-2.266;2022-07-06T01:41:35;102481.25;;;13.80;87.85
73101;BME280;61288;53.446;-2.266;2022-07-06T01:44:01;102476.78;;;13.84;87.96
73101;BME280;61288;53.446;-2.266;2022-07-06T01:46:27;102472.44;;;13.84;87.99
73101;BME280;61288;53.446;-2.266;2022-07-06T01:48:52;102464.56;;;13.88;87.55
73101;BME280;61288;53.446;-2.266;2022-07-06T01:51:21;102455.78;;;13.90;87.79
73101;BME280;61288;53.446;-2.266;2022-07-06T01:53:48;102452.34;;;13.90;87.83
73101;BME280;61288;53.446;-2.266;2022-07-06T01:56:14;102450.53;;;13.92;88.04
73101;BME280;61288;53.446;-2.266;2022-07-06T01:58:39;102442.63;;;13.95;87.37
73101;BME280;61288;53.446;-2.266;2022-07-06T02:01:10;102434.78;;;13.96;88.02
73101;BME280;61288;53.446;-2.266;2022-07-06T02:03:36;102428.69;;;13.97;87.99
73101;BME280;61288;53.446;-2.266;2022-07-06T02:06:03;102427.72;;;14.00;87.67
73101;BME280;61288;53.446;-2.266;2022-07-06T02:08:29;102433.75;;;14.02;87.70
73101;BME280;61288;53.446;-2.266;2022-07-06T02:10:55;102428.53;;;14.02;87.57
73101;BME280;61288;53.446;-2.266;2022-07-06T02:13:21;102418.97;;;14.03;87.75
73101;BME280;61288;53.446;-2.266;2022-07-06T02:15:46;102426.75;;;14.04;87.76
73101;BME280;61288;53.446;-2.266;2022-07-06T02:18:12;102407.59;;;14.05;87.81
73101;BME280;61288;53.446;-2.266;2022-07-06T02:20:38;102412.78;;;14.07;87.35
73101;BME280;61288;53.446;-2.266;2022-07-06T02:23:05;102408.47;;;14.06;87.67
73101;BME280;61288;53.446;-2.266;2022-07-06T02:25:31;102412.72;;;14.08;87.47
73101;BME280;61288;53.446;-2.266;2022-07-06T02:28:01;102402.28;;;14.10;87.37
73101;BME280;61288;53.446;-2.266;2022-07-06T02:30:27;102414.41;;;14.11;87.63
73101;BME280;61288;53.446;-2.266;2022-07-06T02:32:52;102414.41;;;14.11;86.85
73101;BME280;61288;53.446;-2.266;2022-07-06T02:35:21;102420.44;;;14.13;87.23
73101;BME280;61288;53.446;-2.266;2022-07-06T02:37:47;102411.84;;;14.09;87.55
73101;BME280;61288;53.446;-2.266;2022-07-06T02:40:13;102413.56;;;14.10;87.56
73101;BME280;61288;53.446;-2.266;2022-07-06T02:42:41;102413.50;;;14.12;87.33
73101;BME280;61288;53.446;-2.266;2022-07-06T02:45:07;102416.19;;;14.10;87.33
73101;BME280;61288;53.446;-2.266;2022-07-06T02:47:33;102405.81;;;14.07;87.98
73101;BME280;61288;53.446;-2.266;2022-07-06T02:49:59;102408.34;;;14.10;87.57
73101;BME280;61288;53.446;-2.266;2022-07-06T02:52:25;102414.41;;;14.11;87.72
73101;BME280;61288;53.446;-2.266;2022-07-06T02:54:51;102416.13;;;14.12;87.36
73101;BME280;61288;53.446;-2.266;2022-07-06T02:57:17;102416.09;;;14.13;87.14
73101;BME280;61288;53.446;-2.266;2022-07-06T02:59:43;102421.28;;;14.13;87.33
73101;BME280;61288;53.446;-2.266;2022-07-06T03:02:10;102417.81;;;14.13;87.15
73101;BME280;61288;53.446;-2.266;2022-07-06T03:04:45;102416.88;;;14.15;86.97
73101;BME280;61288;53.446;-2.266;2022-07-06T03:07:10;102416.88;;;14.15;86.87
73101;BME280;61288;53.446;-2.266;2022-07-06T03:09:36;102420.41;;;14.14;86.86
73101;BME280;61288;53.446;-2.266;2022-07-06T03:12:06;102426.50;;;14.13;86.49
73101;BME280;61288;53.446;-2.266;2022-07-06T03:14:32;102419.53;;;14.14;86.73
73101;BME280;61288;53.446;-2.266;2022-07-06T03:16:57;102416.91;;;14.14;86.66
73101;BME280;61288;53.446;-2.266;2022-07-06T03:19:23;102414.31;;;14.14;86.33
73101;BME280;61288;53.446;-2.266;2022-07-06T03:21:55;102416.09;;;14.13;86.47
73101;BME280;61288;53.446;-2.266;2022-07-06T03:24:23;102418.63;;;14.15;86.64
73101;BME280;61288;53.446;-2.266;2022-07-06T03:26:49;102415.13;;;14.16;86.43
73101;BME280;61288;53.446;-2.266;2022-07-06T03:29:15;102418.59;;;14.17;86.14
73101;BME280;61288;53.446;-2.266;2022-07-06T03:31:40;102422.09;;;14.15;86.51
73101;BME280;61288;53.446;-2.266;2022-07-06T03:34:10;102418.69;;;14.13;86.39
73101;BME280;61288;53.446;-2.266;2022-07-06T03:36:35;102420.41;;;14.14;86.48
73101;BME280;61288;53.446;-2.266;2022-07-06T03:39:01;102410.06;;;14.11;86.42
73101;BME280;61288;53.446;-2.266;2022-07-06T03:41:27;102416.13;;;14.12;86.61
73101;BME280;61288;53.446;-2.266;2022-07-06T03:43:53;102423.03;;;14.13;86.50
73101;BME280;61288;53.446;-2.266;2022-07-06T03:46:23;102417.81;;;14.13;86.31
73101;BME280;61288;53.446;-2.266;2022-07-06T03:48:50;102423.91;;;14.13;86.38
73101;BME280;61288;53.446;-2.266;2022-07-06T03:51:16;102418.72;;;14.12;86.44
73101;BME280;61288;53.446;-2.266;2022-07-06T03:53:41;102425.69;;;14.11;86.35
73101;BME280;61288;53.446;-2.266;2022-07-06T03:56:07;102431.75;;;14.12;86.23
73101;BME280;61288;53.446;-2.266;2022-07-06T03:58:52;102429.97;;;14.14;86.56
73101;BME280;61288;53.446;-2.266;2022-07-06T04:01:17;102423.00;;;14.14;86.17
73101;BME280;61288;53.446;-2.266;2022-07-06T04:03:43;102426.50;;;14.13;86.10
73101;BME280;61288;53.446;-2.266;2022-07-06T04:06:10;102432.56;;;14.14;86.03
73101;BME280;61288;53.446;-2.266;2022-07-06T04:08:36;102434.28;;;14.15;86.09
73101;BME280;61288;53.446;-2.266;2022-07-06T04:11:03;102438.66;;;14.14;85.81
73101;BME280;61288;53.446;-2.266;2022-07-06T04:13:29;102432.63;;;14.12;85.65
73101;BME280;61288;53.446;-2.266;2022-07-06T04:15:56;102432.56;;;14.14;86.00
73101;BME280;61288;53.446;-2.266;2022-07-06T04:18:22;102430.00;;;14.12;85.91
73101;BME280;61288;53.446;-2.266;2022-07-06T04:20:51;102429.16;;;14.12;86.02
73101;BME280;61288;53.446;-2.266;2022-07-06T04:23:17;102429.13;;;14.13;85.54
73101;BME280;61288;53.446;-2.266;2022-07-06T04:25:42;102426.50;;;14.13;85.55
73101;BME280;61288;53.446;-2.266;2022-07-06T04:28:08;102418.72;;;14.12;85.42
73101;BME280;61288;53.446;-2.266;2022-07-06T04:30:35;102419.59;;;14.12;85.68
73101;BME280;61288;53.446;-2.266;2022-07-06T04:33:01;102417.78;;;14.14;85.69
73101;BME280;61288;53.446;-2.266;2022-07-06T04:35:28;102422.13;;;14.14;85.37
73101;BME280;61288;53.446;-2.266;2022-07-06T04:37:54;102416.03;;;14.15;85.57
73101;BME280;61288;53.446;-2.266;2022-07-06T04:40:24;102409.88;;;14.18;85.72
73101;BME280;61288;53.446;-2.266;2022-07-06T04:42:50;102418.59;;;14.17;85.54
73101;BME280;61288;53.446;-2.266;2022-07-06T04:45:16;102421.22;;;14.17;85.38
73101;BME280;61288;53.446;-2.266;2022-07-06T04:47:42;102415.19;;;14.14;85.47
73101;BME280;61288;53.446;-2.266;2022-07-06T04:50:09;102429.13;;;14.13;85.58
73101;BME280;61288;53.446;-2.266;2022-07-06T04:52:36;102422.19;;;14.12;85.86
73101;BME280;61288;53.446;-2.266;2022-07-06T04:55:02;102428.25;;;14.13;85.44
73101;BME280;61288;53.446;-2.266;2022-07-06T04:57:30;102416.19;;;14.10;85.77
73101;BME280;61288;53.446;-2.266;2022-07-06T04:59:55;102413.56;;;14.10;85.70
73101;BME280;61288;53.446;-2.266;2022-07-06T05:02:22;102419.63;;;14.11;85.73
73101;BME280;61288;53.446;-2.266;2022-07-06T05:04:47;102424.88;;;14.09;85.45
73101;BME280;61288;53.446;-2.266;2022-07-06T05:17:40;102417.19;;;14.05;85.39
73101;BME280;61288;53.446;-2.266;2022-07-06T05:20:06;102412.00;;;14.03;85.53
73101;BME280;61288;53.446;-2.266;2022-07-06T05:22:41;102420.63;;;14.05;85.16
73101;BME280;61288;53.446;-2.266;2022-07-06T05:25:09;102426.72;;;14.06;84.77
73101;BME280;61288;53.446;-2.266;2022-07-06T05:27:38;102429.34;;;14.04;85.18
73101;BME280;61288;53.446;-2.266;2022-07-06T05:30:04;102449.31;;;14.05;85.28
73101;BME280;61288;53.446;-2.266;2022-07-06T05:32:30;102446.69;;;14.05;85.05
73101;BME280;61288;53.446;-2.266;2022-07-06T05:34:57;102445.78;;;14.06;85.09
73101;BME280;61288;53.446;-2.266;2022-07-06T05:37:22;102446.69;;;14.05;84.98
73101;BME280;61288;53.446;-2.266;2022-07-06T05:39:48;102444.09;;;14.05;85.02
73101;BME280;61288;53.446;-2.266;2022-07-06T05:42:16;102444.91;;;14.07;85.10
73101;BME280;61288;53.446;-2.266;2022-07-06T05:44:41;102437.94;;;14.08;84.84
73101;BME280;61288;53.446;-2.266;2022-07-06T05:47:18;102445.78;;;14.08;84.91
73101;BME280;61288;53.446;-2.266;2022-07-06T05:50:03;102438.84;;;14.07;84.50
73101;BME280;61288;53.446;-2.266;2022-07-06T05:52:38;102437.97;;;14.06;84.36
73101;BME280;61288;53.446;-2.266;2022-07-06T05:55:11;102441.47;;;14.07;84.67
73101;BME280;61288;53.446;-2.266;2022-07-06T05:57:38;102440.56;;;14.08;84.72
73101;BME280;61288;53.446;-2.266;2022-07-06T06:00:06;102443.19;;;14.06;84.59
73101;BME280;61288;53.446;-2.266;2022-07-06T06:02:39;102451.06;;;14.05;84.72
73101;BME280;61288;53.446;-2.266;2022-07-06T06:05:10;102442.28;;;14.07;84.59
73101;BME280;61288;53.446;-2.266;2022-07-06T06:07:40;102445.78;;;14.06;84.59
73101;BME280;61288;53.446;-2.266;2022-07-06T06:10:11;102442.44;;;14.03;84.79
73101;BME280;61288;53.446;-2.266;2022-07-06T06:12:38;102436.41;;;14.00;84.74
73101;BME280;61288;53.446;-2.266;2022-07-06T06:15:11;102445.13;;;13.99;84.98
73101;BME280;61288;53.446;-2.266;2022-07-06T06:17:38;102446.78;;;14.02;85.51
73101;BME280;61288;53.446;-2.266;2022-07-06T06:20:05;102454.66;;;14.00;85.80
73101;BME280;61288;53.446;-2.266;2022-07-06T06:22:54;102454.69;;;13.99;85.77
73101;BME280;61288;53.446;-2.266;2022-07-06T06:25:20;102453.88;;;13.97;85.84
73101;BME280;61288;53.446;-2.266;2022-07-06T06:27:47;102458.25;;;13.96;86.22
73101;BME280;61288;53.446;-2.266;2022-07-06T06:30:13;102457.44;;;13.94;86.25
73101;BME280;61288;53.446;-2.266;2022-07-06T06:32:40;102445.34;;;13.92;86.52
73101;BME280;61288;53.446;-2.266;2022-07-06T06:35:06;102457.50;;;13.91;86.59
73101;BME280;61288;53.446;-2.266;2022-07-06T06:37:34;102454.84;;;13.93;86.84
73101;BME280;61288;53.446;-2.266;2022-07-06T06:40:00;102462.69;;;13.93;86.84
73101;BME280;61288;53.446;-2.266;2022-07-06T06:42:26;102460.16;;;13.90;87.34
73101;BME280;61288;53.446;-2.266;2022-07-06T06:44:52;102457.66;;;13.85;87.42
73101;BME280;61288;53.446;-2.266;2022-07-06T06:47:20;102456.72;;;13.88;87.10
73101;BME280;61288;53.446;-2.266;2022-07-06T06:49:45;102452.50;;;13.83;87.39
73101;BME280;61288;53.446;-2.266;2022-07-06T06:52:14;102454.25;;;13.83;87.66
73101;BME280;61288;53.446;-2.266;2022-07-06T06:54:39;102461.22;;;13.82;87.56
73101;BME280;61288;53.446;-2.266;2022-07-06T06:57:07;102456.94;;;13.80;87.99
73101;BME280;61288;53.446;-2.266;2022-07-06T06:59:32;102448.19;;;13.82;87.94
73101;BME280;61288;53.446;-2.266;2022-07-06T07:02:00;102450.63;;;13.89;87.96
73101;BME280;61288;53.446;-2.266;2022-07-06T07:04:25;102456.56;;;13.94;87.98
73101;BME280;61288;53.446;-2.266;2022-07-06T07:06:52;102448.81;;;13.92;87.90
73101;BME280;61288;53.446;-2.266;2022-07-06T07:09:17;102451.53;;;13.88;88.12
73101;BME280;61288;53.446;-2.266;2022-07-06T07:11:43;102450.66;;;13.87;87.80
73101;BME280;61288;53.446;-2.266;2022-07-06T07:14:09;102455.88;;;13.87;87.94
73101;BME280;61288;53.446;-2.266;2022-07-06T07:16:34;102453.31;;;13.85;88.21
73101;BME280;61288;53.446;-2.266;2022-07-06T07:19:00;102458.56;;;13.84;87.98
73101;BME280;61288;53.446;-2.266;2022-07-06T07:21:26;102462.06;;;13.83;88.38
73101;BME280;61288;53.446;-2.266;2022-07-06T07:23:57;102468.94;;;13.85;88.29
73101;BME280;61288;53.446;-2.266;2022-07-06T07:26:28;102464.47;;;13.91;87.85
73101;BME280;61288;53.446;-2.266;2022-07-06T07:28:57;102461.78;;;13.94;87.94
73101;BME280;61288;53.446;-2.266;2022-07-06T07:31:23;102460.78;;;13.99;87.92
73101;BME280;61288;53.446;-2.266;2022-07-06T07:33:50;102459.88;;;14.00;87.72
73101;BME280;61288;53.446;-2.266;2022-07-06T07:36:17;102458.09;;;14.01;88.13
73101;BME280;61288;53.446;-2.266;2022-07-06T07:38:43;102458.09;;;14.01;88.04
73101;BME280;61288;53.446;-2.266;2022-07-06T07:41:11;102462.50;;;13.99;88.05
73101;BME280;61288;53.446;-2.266;2022-07-06T07:43:39;102463.28;;;14.03;88.36
73101;BME280;61288;53.446;-2.266;2022-07-06T07:46:06;102458.84;;;14.06;88.24
73101;BME280;61288;53.446;-2.266;2022-07-06T07:48:32;102463.03;;;14.12;88.41
73101;BME280;61288;53.446;-2.266;2022-07-06T07:50:59;102456.84;;;14.16;88.48
73101;BME280;61288;53.446;-2.266;2022-07-06T07:53:25;102465.44;;;14.20;87.98
73101;BME280;61288;53.446;-2.266;2022-07-06T07:55:54;102461.88;;;14.22;88.38
73101;BME280;61288;53.446;-2.266;2022-07-06T07:58:25;102459.25;;;14.24;87.68
73101;BME280;61288;53.446;-2.266;2022-07-06T08:00:56;102460.13;;;14.23;87.54
73101;BME280;61288;53.446;-2.266;2022-07-06T08:03:25;102450.59;;;14.22;87.90
73101;BME280;61288;53.446;-2.266;2022-07-06T08:05:55;102453.31;;;14.19;87.63
73101;BME280;61288;53.446;-2.266;2022-07-06T08:08:20;102454.06;;;14.22;87.90
73101;BME280;61288;53.446;-2.266;2022-07-06T08:10:49;102460.97;;;14.23;88.00
73101;BME280;61288;53.446;-2.266;2022-07-06T08:13:15;102461.66;;;14.30;87.72
73101;BME280;61288;53.446;-2.266;2022-07-06T08:15:42;102462.47;;;14.32;87.35
73101;BME280;61288;53.446;-2.266;2022-07-06T08:18:08;102459.78;;;14.35;87.34
73101;BME280;61288;53.446;-2.266;2022-07-06T08:20:36;102467.56;;;14.37;86.77
73101;BME280;61288;53.446;-2.266;2022-07-06T08:23:03;102457.09;;;14.38;87.39
73101;BME280;61288;53.446;-2.266;2022-07-06T08:25:32;102466.59;;;14.41;86.60
73101;BME280;61288;53.446;-2.266;2022-07-06T08:27:57;102461.41;;;14.39;85.85
73101;BME280;61288;53.446;-2.266;2022-07-06T08:30:24;102459.44;;;14.48;86.74
73101;BME280;61288;53.446;-2.266;2022-07-06T08:32:50;102457.50;;;14.54;86.88
73101;BME280;61288;53.446;-2.266;2022-07-06T08:35:17;102450.34;;;14.61;86.94
73101;BME280;61288;53.446;-2.266;2022-07-06T08:37:42;102451.16;;;14.63;86.15
73101;BME280;61288;53.446;-2.266;2022-07-06T08:40:10;102450.78;;;14.77;86.58
73101;BME280;61288;53.446;-2.266;2022-07-06T08:42:36;102457.50;;;14.84;85.71
73101;BME280;61288;53.446;-2.266;2022-07-06T08:45:06;102465.22;;;14.89;85.58
73101;BME280;61288;53.446;-2.266;2022-07-06T08:47:32;102466.03;;;14.91;86.04
73101;BME280;61288;53.446;-2.266;2022-07-06T08:50:02;102460.56;;;14.99;86.36
73101;BME280;61288;53.446;-2.266;2022-07-06T08:52:33;102468.16;;;15.07;86.24
73101;BME280;61288;53.446;-2.266;2022-07-06T08:55:00;102464.81;;;15.01;85.67
73101;BME280;61288;53.446;-2.266;2022-07-06T08:57:28;102475.47;;;14.95;85.90
73101;BME280;61288;53.446;-2.266;2022-07-06T08:59:59;102469.63;;;14.87;85.47
73101;BME280;61288;53.446;-2.266;2022-07-06T09:02:25;102468.03;;;14.83;85.70
73101;BME280;61288;53.446;-2.266;2022-07-06T09:04:58;102468.03;;;14.83;85.98
73101;BME280;61288;53.446;-2.266;2022-07-06T09:07:27;102470.66;;;14.81;85.85
73101;BME280;61288;53.446;-2.266;2022-07-06T09:09:59;102473.38;;;14.78;86.09
73101;BME280;61288;53.446;-2.266;2022-07-06T09:12:33;102480.28;;;14.79;85.78
73101;BME280;61288;53.446;-2.266;2022-07-06T09:15:09;102466.53;;;14.74;85.33
73101;BME280;61288;53.446;-2.266;2022-07-06T09:17:37;102464.09;;;14.68;85.13
73101;BME280;61288;53.446;-2.266;2022-07-06T09:20:10;102460.69;;;14.64;85.70
73101;BME280;61288;53.446;-2.266;2022-07-06T09:22:40;102457.16;;;14.67;86.41
73101;BME280;61288;53.446;-2.266;2022-07-06T09:25:10;102456.19;;;14.69;85.83
73101;BME280;61288;53.446;-2.266;2022-07-06T09:27:40;102451.81;;;14.71;85.24
73101;BME280;61288;53.446;-2.266;2022-07-06T09:30:07;102456.94;;;14.75;84.33
73101;BME280;61288;53.446;-2.266;2022-07-06T09:32:41;102454.06;;;14.84;85.59
73101;BME280;61288;53.446;-2.266;2022-07-06T09:35:25;102452.16;;;14.89;83.88
73101;BME280;61288;53.446;-2.266;2022-07-06T09:38:14;102455.06;;;15.08;84.46
73101;BME280;61288;53.446;-2.266;2022-07-06T09:40:42;102461.44;;;15.26;83.03
73101;BME280;61288;53.446;-2.266;2022-07-06T09:43:24;102453.31;;;15.36;82.60
73101;BME280;61288;53.446;-2.266;2022-07-06T09:46:00;102453.13;;;15.42;82.07
73101;BME280;61288;53.446;-2.266;2022-07-06T09:48:27;102456.34;;;15.50;83.40
73101;BME280;61288;53.446;-2.266;2022-07-06T09:51:01;102448.28;;;15.56;80.62
73101;BME280;61288;53.446;-2.266;2022-07-06T09:53:41;102451.56;;;15.63;79.85
73101;BME280;61288;53.446;-2.266;2022-07-06T09:56:12;102453.78;;;15.74;81.17
73101;BME280;61288;53.446;-2.266;2022-07-06T09:58:38;102453.38;;;15.86;81.15
73101;BME280;61288;53.446;-2.266;2022-07-06T10:01:05;102455.53;;;16.00;80.72
73101;BME280;61288;53.446;-2.266;2022-07-06T10:03:31;102452.84;;;16.02;79.33
73101;BME280;61288;53.446;-2.266;2022-07-06T10:06:04;102453.63;;;16.04;76.97
73101;BME280;61288;53.446;-2.266;2022-07-06T10:08:39;102455.56;;;15.99;76.72
73101;BME280;61288;53.446;-2.266;2022-07-06T10:11:10;102454.09;;;15.92;76.67
73101;BME280;61288;53.446;-2.266;2022-07-06T10:13:41;102461.88;;;15.93;77.89
73101;BME280;61288;53.446;-2.266;2022-07-06T10:16:07;102450.53;;;15.94;77.16
73101;BME280;61288;53.446;-2.266;2022-07-06T10:18:34;102453.28;;;15.90;75.90
73101;BME280;61288;53.446;-2.266;2022-07-06T10:20:59;102471.09;;;15.78;76.86
73101;BME280;61288;53.446;-2.266;2022-07-06T10:23:28;102463.25;;;15.78;76.68
73101;BME280;61288;53.446;-2.266;2022-07-06T10:26:00;102465.97;;;15.75;76.62
73101;BME280;61288;53.446;-2.266;2022-07-06T10:28:27;102473.16;;;15.68;75.79
73101;BME280;61288;53.446;-2.266;2022-07-06T10:30:56;102466.81;;;15.76;75.80
73101;BME280;61288;53.446;-2.266;2022-07-06T10:33:27;102468.41;;;15.80;75.37
73101;BME280;61288;53.446;-2.266;2022-07-06T10:35:53;102462.16;;;15.84;75.89
73101;BME280;61288;53.446;-2.266;2022-07-06T10:38:31;102459.88;;;16.00;77.50
73101;BME280;61288;53.446;-2.266;2022-07-06T10:41:10;102461.28;;;16.10;75.31
73101;BME280;61288;53.446;-2.266;2022-07-06T10:43:42;102463.03;;;16.10;74.10
73101;BME280;61288;53.446;-2.266;2022-07-06T10:46:15;102453.16;;;16.18;74.80
73101;BME280;61288;53.446;-2.266;2022-07-06T10:48:43;102452.19;;;16.21;73.42
73101;BME280;61288;53.446;-2.266;2022-07-06T10:51:27;102462.94;;;16.13;73.81
73101;BME280;61288;53.446;-2.266;2022-07-06T10:54:01;102456.09;;;16.09;74.11
73101;BME280;61288;53.446;-2.266;2022-07-06T10:56:39;102460.19;;;16.16;74.70
73101;BME280;61288;53.446;-2.266;2022-07-06T11:02:18;102458.59;;;16.12;73.70
73101;BME280;61288;53.446;-2.266;2022-07-06T11:04:48;102441.16;;;16.12;73.67
73101;BME280;61288;53.446;-2.266;2022-07-06T11:07:19;102447.47;;;16.07;74.33
73101;BME280;61288;53.446;-2.266;2022-07-06T11:10:02;102429.19;;;16.05;73.71
73101;BME280;61288;53.446;-2.266;2022-07-06T11:12:28;102431.88;;;16.03;73.35
73101;BME280;61288;53.446;-2.266;2022-07-06T11:14:55;102428.59;;;15.98;73.70
73101;BME280;61288;53.446;-2.266;2022-07-06T11:17:21;102416.34;;;15.99;73.26
73101;BME280;61288;53.446;-2.266;2022-07-06T11:20:11;102423.53;;;16.17;75.55
73101;BME280;61288;53.446;-2.266;2022-07-06T11:22:38;102425.81;;;16.51;73.32
73101;BME280;61288;53.446;-2.266;2022-07-06T11:25:08;102413.69;;;16.70;71.98
73101;BME280;61288;53.446;-2.266;2022-07-06T11:27:37;102404.59;;;17.03;72.56
73101;BME280;61288;53.446;-2.266;2022-07-06T11:30:03;102411.38;;;17.29;70.79
73101;BME280;61288;53.446;-2.266;2022-07-06T11:32:35;102412.22;;;17.51;70.90
73101;BME280;61288;53.446;-2.266;2022-07-06T11:35:01;102413.81;;;17.55;69.18
73101;BME280;61288;53.446;-2.266;2022-07-06T11:37:30;102410.28;;;17.35;70.04
73101;BME280;61288;53.446;-2.266;2022-07-06T11:39:56;102422.00;;;17.26;70.05
73101;BME280;61288;53.446;-2.266;2022-07-06T11:42:25;102422.63;;;17.11;69.43
73101;BME280;61288;53.446;-2.266;2022-07-06T11:44:56;102412.19;;;16.87;70.39
73101;BME280;61288;53.446;-2.266;2022-07-06T11:47:30;102410.16;;;16.71;71.11
73101;BME280;61288;53.446;-2.266;2022-07-06T11:49:56;102417.59;;;16.60;72.44
73101;BME280;61288;53.446;-2.266;2022-07-06T11:52:23;102422.94;;;16.57;72.03
73101;BME280;61288;53.446;-2.266;2022-07-06T11:54:49;102421.28;;;16.54;71.88
73101;BME280;61288;53.446;-2.266;2022-07-06T11:57:34;102418.50;;;16.59;71.91
73101;BME280;61288;53.446;-2.266;2022-07-06T12:00:00;102416.38;;;16.69;72.90
73101;BME280;61288;53.446;-2.266;2022-07-06T12:02:26;102426.38;;;16.81;72.50
73101;BME280;61288;53.446;-2.266;2022-07-06T12:04:51;102418.25;;;16.87;72.03
73101;BME280;61288;53.446;-2.266;2022-07-06T12:07:19;102422.91;;;16.81;70.92
73101;BME280;61288;53.446;-2.266;2022-07-06T12:09:46;102422.34;;;16.72;71.82
73101;BME280;61288;53.446;-2.266;2022-07-06T12:12:17;102414.72;;;16.66;72.47
73101;BME280;61288;53.446;-2.266;2022-07-06T12:14:54;102412.34;;;16.60;72.57
73101;BME280;61288;53.446;-2.266;2022-07-06T12:17:21;102418.06;;;16.48;72.52
73101;BME280;61288;53.446;-2.266;2022-07-06T12:19:56;102414.09;;;16.37;74.00
73101;BME280;61288;53.446;-2.266;2022-07-06T12:22:28;102415.78;;;16.38;74.19
73101;BME280;61288;53.446;-2.266;2022-07-06T12:24:53;102408.00;;;16.37;74.00
73101;BME280;61288;53.446;-2.266;2022-07-06T12:27:23;102407.22;;;16.35;73.27
73101;BME280;61288;53.446;-2.266;2022-07-06T12:29:49;102401.31;;;16.29;73.94
73101;BME280;61288;53.446;-2.266;2022-07-06T12:32:21;102408.41;;;16.26;73.73
73101;BME280;61288;53.446;-2.266;2022-07-06T12:35:07;102404.25;;;16.20;73.62
73101;BME280;61288;53.446;-2.266;2022-07-06T12:37:35;102402.66;;;16.16;74.26
73101;BME280;61288;53.446;-2.266;2022-07-06T12:40:02;102407.91;;;16.16;74.48
73101;BME280;61288;53.446;-2.266;2022-07-06T12:42:28;102407.09;;;16.14;74.40
73101;BME280;61288;53.446;-2.266;2022-07-06T12:44:53;102409.25;;;16.02;75.34
73101;BME280;61288;53.446;-2.266;2022-07-06T12:47:24;102402.78;;;15.87;76.50
73101;BME280;61288;53.446;-2.266;2022-07-06T12:50:10;102399.88;;;15.71;77.81
73101;BME280;61288;53.446;-2.266;2022-07-06T12:52:37;102389.56;;;15.67;77.77
73101;BME280;61288;53.446;-2.266;2022-07-06T12:55:06;102386.03;;;15.68;77.89
73101;BME280;61288;53.446;-2.266;2022-07-06T12:57:51;102394.88;;;15.65;77.49
73101;BME280;61288;53.446;-2.266;2022-07-06T13:00:17;102395.66;;;15.67;76.81